sensor_id;sensor_type;location;lat;lon;timestamp;P1;durP1;ratioP1;P2;durP2;ratioP2
11548;SDS011;61444;59.472;18.306;2023-02-08T00:00:23;9.00;;;2.87;;
11548;SDS011;61444;59.472;18.306;2023-02-08T00:02:35;8.40;;;2.30;;
11548;SDS011;61444;59.472;18.306;2023-02-08T00:04:43;10.77;;;2.70;;
11548;SDS011;61444;59.472;18.306;2023-02-08T00:06:52;13.23;;;2.63;;
11548;SDS011;61444;59.472;18.306;2023-02-08T00:09:01;12.70;;;2.77;;
11548;SDS011;61444;59.472;18.306;2023-02-08T00:11:10;10.60;;;3.33;;
11548;SDS011;61444;59.472;18.306;2023-02-08T00:13:19;15.03;;;2.73;;
11548;SDS011;61444;59.472;18.306;2023-02-08T00:15:27;10.57;;;2.27;;
11548;SDS011;61444;59.472;18.306;2023-02-08T00:17:38;11.30;;;2.60;;
11548;SDS011;61444;59.472;18.306;2023-02-08T00:19:47;14.97;;;3.00;;
11548;SDS011;61444;59.472;18.306;2023-02-08T00:21:56;14.90;;;3.30;;
11548;SDS011;61444;59.472;18.306;2023-02-08T00:24:05;9.73;;;3.23;;
11548;SDS011;61444;59.472;18.306;2023-02-08T00:26:14;9.40;;;2.70;;
11548;SDS011;61444;59.472;18.306;2023-02-08T00:28:22;15.63;;;2.40;;
11548;SDS011;61444;59.472;18.306;2023-02-08T00:30:32;11.77;;;3.60;;
11548;SDS011;61444;59.472;18.306;2023-02-08T00:32:43;10.60;;;3.00;;
11548;SDS011;61444;59.472;18.306;2023-02-08T00:34:51;10.33;;;2.50;;
11548;SDS011;61444;59.472;18.306;2023-02-08T00:37:00;10.13;;;2.73;;
11548;SDS011;61444;59.472;18.306;2023-02-08T00:39:09;10.63;;;2.67;;
11548;SDS011;61444;59.472;18.306;2023-02-08T00:41:18;11.63;;;2.90;;
11548;SDS011;61444;59.472;18.306;2023-02-08T00:43:27;10.97;;;2.93;;
11548;SDS011;61444;59.472;18.306;2023-02-08T00:45:36;12.60;;;2.77;;
11548;SDS011;61444;59.472;18.306;2023-02-08T00:47:46;10.80;;;2.70;;
11548;SDS011;61444;59.472;18.306;2023-02-08T00:49:55;12.80;;;2.87;;
11548;SDS011;61444;59.472;18.306;2023-02-08T00:52:04;10.53;;;3.00;;
11548;SDS011;61444;59.472;18.306;2023-02-08T00:54:13;10.00;;;2.57;;
11548;SDS011;61444;59.472;18.306;2023-02-08T00:56:22;15.10;;;2.70;;
11548;SDS011;61444;59.472;18.306;2023-02-08T00:58:31;11.17;;;3.20;;
11548;SDS011;61444;59.472;18.306;2023-02-08T01:00:41;10.97;;;2.90;;
11548;SDS011;61444;59.472;18.306;2023-02-08T01:02:51;16.23;;;3.03;;
11548;SDS011;61444;59.472;18.306;2023-02-08T01:05:00;10.93;;;2.57;;
11548;SDS011;61444;59.472;18.306;2023-02-08T01:07:09;11.20;;;2.60;;
11548;SDS011;61444;59.472;18.306;2023-02-08T01:09:18;13.10;;;3.57;;
11548;SDS011;61444;59.472;18.306;2023-02-08T01:11:26;5.97;;;2.27;;
11548;SDS011;61444;59.472;18.306;2023-02-08T01:13:36;11.60;;;3.07;;
11548;SDS011;61444;59.472;18.306;2023-02-08T01:15:45;12.17;;;2.50;;
11548;SDS011;61444;59.472;18.306;2023-02-08T01:17:56;13.03;;;2.80;;
11548;SDS011;61444;59.472;18.306;2023-02-08T01:20:05;13.60;;;2.93;;
11548;SDS011;61444;59.472;18.306;2023-02-08T01:22:14;12.90;;;3.13;;
11548;SDS011;61444;59.472;18.306;2023-02-08T01:24:23;12.10;;;3.00;;
11548;SDS011;61444;59.472;18.306;2023-02-08T01:26:32;12.97;;;3.00;;
11548;SDS011;61444;59.472;18.306;2023-02-08T01:28:42;11.70;;;3.10;;
11548;SDS011;61444;59.472;18.306;2023-02-08T01:30:51;13.20;;;3.03;;
11548;SDS011;61444;59.472;18.306;2023-02-08T01:33:01;15.03;;;3.33;;
11548;SDS011;61444;59.472;18.306;2023-02-08T01:35:10;12.77;;;2.90;;
11548;SDS011;61444;59.472;18.306;2023-02-08T01:37:19;19.47;;;3.50;;
11548;SDS011;61444;59.472;18.306;2023-02-08T01:39:28;13.03;;;3.43;;
11548;SDS011;61444;59.472;18.306;2023-02-08T01:41:37;13.03;;;3.17;;
11548;SDS011;61444;59.472;18.306;2023-02-08T01:44:03;12.23;;;2.70;;
11548;SDS011;61444;59.472;18.306;2023-02-08T01:46:12;11.03;;;3.57;;
11548;SDS011;61444;59.472;18.306;2023-02-08T01:48:24;14.37;;;3.70;;
11548;SDS011;61444;59.472;18.306;2023-02-08T01:50:44;16.63;;;3.70;;
11548;SDS011;61444;59.472;18.306;2023-02-08T01:52:54;13.23;;;2.87;;
11548;SDS011;61444;59.472;18.306;2023-02-08T01:55:04;13.20;;;3.30;;
11548;SDS011;61444;59.472;18.306;2023-02-08T01:57:14;14.13;;;3.47;;
11548;SDS011;61444;59.472;18.306;2023-02-08T01:59:23;20.10;;;3.83;;
11548;SDS011;61444;59.472;18.306;2023-02-08T02:01:34;15.10;;;3.77;;
11548;SDS011;61444;59.472;18.306;2023-02-08T02:03:45;14.03;;;3.87;;
11548;SDS011;61444;59.472;18.306;2023-02-08T02:05:56;15.23;;;3.97;;
11548;SDS011;61444;59.472;18.306;2023-02-08T02:08:08;12.47;;;4.17;;
11548;SDS011;61444;59.472;18.306;2023-02-08T02:10:20;16.43;;;3.40;;
11548;SDS011;61444;59.472;18.306;2023-02-08T02:12:30;13.80;;;3.87;;
11548;SDS011;61444;59.472;18.306;2023-02-08T02:14:39;15.03;;;3.93;;
11548;SDS011;61444;59.472;18.306;2023-02-08T02:16:49;15.67;;;3.73;;
11548;SDS011;61444;59.472;18.306;2023-02-08T02:19:00;17.03;;;4.10;;
11548;SDS011;61444;59.472;18.306;2023-02-08T02:23:38;16.43;;;4.13;;
11548;SDS011;61444;59.472;18.306;2023-02-08T02:25:56;17.03;;;3.60;;
11548;SDS011;61444;59.472;18.306;2023-02-08T02:28:29;10.20;;;3.50;;
11548;SDS011;61444;59.472;18.306;2023-02-08T02:35:40;17.90;;;5.07;;
11548;SDS011;61444;59.472;18.306;2023-02-08T02:37:54;14.67;;;4.37;;
11548;SDS011;61444;59.472;18.306;2023-02-08T02:40:07;14.43;;;3.83;;
11548;SDS011;61444;59.472;18.306;2023-02-08T02:42:19;15.77;;;4.17;;
11548;SDS011;61444;59.472;18.306;2023-02-08T02:44:50;17.43;;;5.23;;
11548;SDS011;61444;59.472;18.306;2023-02-08T02:47:01;17.77;;;4.83;;
11548;SDS011;61444;59.472;18.306;2023-02-08T02:49:14;18.23;;;4.00;;
11548;SDS011;61444;59.472;18.306;2023-02-08T02:51:27;21.67;;;5.43;;
11548;SDS011;61444;59.472;18.306;2023-02-08T02:53:40;20.93;;;5.30;;
11548;SDS011;61444;59.472;18.306;2023-02-08T02:55:51;15.30;;;4.53;;
11548;SDS011;61444;59.472;18.306;2023-02-08T02:58:02;16.13;;;4.53;;
11548;SDS011;61444;59.472;18.306;2023-02-08T03:00:15;18.40;;;4.60;;
11548;SDS011;61444;59.472;18.306;2023-02-08T03:02:26;18.60;;;5.40;;
11548;SDS011;61444;59.472;18.306;2023-02-08T03:04:53;23.47;;;5.20;;
11548;SDS011;61444;59.472;18.306;2023-02-08T03:07:04;19.17;;;4.93;;
11548;SDS011;61444;59.472;18.306;2023-02-08T03:09:24;18.63;;;5.30;;
11548;SDS011;61444;59.472;18.306;2023-02-08T03:11:35;21.60;;;5.23;;
11548;SDS011;61444;59.472;18.306;2023-02-08T03:13:52;24.67;;;4.73;;
11548;SDS011;61444;59.472;18.306;2023-02-08T03:16:11;13.93;;;4.57;;
11548;SDS011;61444;59.472;18.306;2023-02-08T03:18:24;14.53;;;5.50;;
11548;SDS011;61444;59.472;18.306;2023-02-08T03:20:38;20.73;;;5.47;;
11548;SDS011;61444;59.472;18.306;2023-02-08T03:22:52;18.10;;;5.53;;
11548;SDS011;61444;59.472;18.306;2023-02-08T03:25:06;13.57;;;5.13;;
11548;SDS011;61444;59.472;18.306;2023-02-08T03:27:18;18.83;;;6.00;;
11548;SDS011;61444;59.472;18.306;2023-02-08T03:29:35;25.80;;;5.47;;
11548;SDS011;61444;59.472;18.306;2023-02-08T03:31:48;21.30;;;5.47;;
11548;SDS011;61444;59.472;18.306;2023-02-08T03:33:59;19.10;;;4.93;;
11548;SDS011;61444;59.472;18.306;2023-02-08T03:36:13;17.00;;;5.47;;
11548;SDS011;61444;59.472;18.306;2023-02-08T03:38:24;22.50;;;5.57;;
11548;SDS011;61444;59.472;18.306;2023-02-08T03:40:35;16.90;;;6.07;;
11548;SDS011;61444;59.472;18.306;2023-02-08T03:42:45;17.53;;;5.87;;
11548;SDS011;61444;59.472;18.306;2023-02-08T03:44:55;16.83;;;6.00;;
11548;SDS011;61444;59.472;18.306;2023-02-08T03:47:07;27.53;;;5.63;;
11548;SDS011;61444;59.472;18.306;2023-02-08T03:49:18;13.87;;;4.57;;
11548;SDS011;61444;59.472;18.306;2023-02-08T03:51:29;18.87;;;6.63;;
11548;SDS011;61444;59.472;18.306;2023-02-08T03:53:41;24.83;;;5.83;;
11548;SDS011;61444;59.472;18.306;2023-02-08T03:55:54;20.37;;;5.57;;
11548;SDS011;61444;59.472;18.306;2023-02-08T03:58:07;17.93;;;5.40;;
11548;SDS011;61444;59.472;18.306;2023-02-08T04:00:17;18.57;;;5.43;;
11548;SDS011;61444;59.472;18.306;2023-02-08T04:02:28;23.93;;;5.83;;
11548;SDS011;61444;59.472;18.306;2023-02-08T04:04:39;21.37;;;6.27;;
11548;SDS011;61444;59.472;18.306;2023-02-08T04:06:49;25.60;;;6.33;;
11548;SDS011;61444;59.472;18.306;2023-02-08T04:08:59;16.53;;;5.90;;
11548;SDS011;61444;59.472;18.306;2023-02-08T04:11:08;18.23;;;5.90;;
11548;SDS011;61444;59.472;18.306;2023-02-08T04:13:17;20.50;;;5.33;;
11548;SDS011;61444;59.472;18.306;2023-02-08T04:15:26;25.33;;;6.33;;
11548;SDS011;61444;59.472;18.306;2023-02-08T04:17:36;23.73;;;6.33;;
11548;SDS011;61444;59.472;18.306;2023-02-08T04:19:44;19.97;;;6.10;;
11548;SDS011;61444;59.472;18.306;2023-02-08T04:21:53;21.10;;;6.27;;
11548;SDS011;61444;59.472;18.306;2023-02-08T04:24:04;19.50;;;5.70;;
11548;SDS011;61444;59.472;18.306;2023-02-08T04:26:13;24.97;;;6.97;;
11548;SDS011;61444;59.472;18.306;2023-02-08T04:28:23;22.00;;;6.33;;
11548;SDS011;61444;59.472;18.306;2023-02-08T04:30:32;20.87;;;6.17;;
11548;SDS011;61444;59.472;18.306;2023-02-08T04:32:40;26.70;;;6.43;;
11548;SDS011;61444;59.472;18.306;2023-02-08T04:34:49;28.07;;;6.63;;
11548;SDS011;61444;59.472;18.306;2023-02-08T04:36:58;19.13;;;6.10;;
11548;SDS011;61444;59.472;18.306;2023-02-08T04:39:09;22.73;;;7.60;;
11548;SDS011;61444;59.472;18.306;2023-02-08T04:41:18;24.97;;;6.80;;
11548;SDS011;61444;59.472;18.306;2023-02-08T04:43:27;17.30;;;5.67;;
11548;SDS011;61444;59.472;18.306;2023-02-08T04:45:36;23.03;;;6.73;;
11548;SDS011;61444;59.472;18.306;2023-02-08T04:47:45;27.77;;;6.43;;
11548;SDS011;61444;59.472;18.306;2023-02-08T04:49:54;16.73;;;5.83;;
11548;SDS011;61444;59.472;18.306;2023-02-08T04:52:03;14.60;;;5.53;;
11548;SDS011;61444;59.472;18.306;2023-02-08T04:54:14;20.77;;;6.23;;
11548;SDS011;61444;59.472;18.306;2023-02-08T04:56:23;19.53;;;6.03;;
11548;SDS011;61444;59.472;18.306;2023-02-08T04:58:32;22.60;;;6.60;;
11548;SDS011;61444;59.472;18.306;2023-02-08T05:00:40;29.27;;;6.60;;
11548;SDS011;61444;59.472;18.306;2023-02-08T05:02:51;17.70;;;6.20;;
11548;SDS011;61444;59.472;18.306;2023-02-08T05:05:00;17.70;;;6.50;;
11548;SDS011;61444;59.472;18.306;2023-02-08T05:07:10;20.70;;;6.47;;
11548;SDS011;61444;59.472;18.306;2023-02-08T05:09:20;26.43;;;7.40;;
11548;SDS011;61444;59.472;18.306;2023-02-08T05:11:30;18.30;;;6.17;;
11548;SDS011;61444;59.472;18.306;2023-02-08T05:13:39;19.87;;;5.77;;
11548;SDS011;61444;59.472;18.306;2023-02-08T05:15:48;21.40;;;6.60;;
11548;SDS011;61444;59.472;18.306;2023-02-08T05:17:57;21.47;;;6.20;;
11548;SDS011;61444;59.472;18.306;2023-02-08T05:20:06;20.53;;;6.27;;
11548;SDS011;61444;59.472;18.306;2023-02-08T05:22:15;18.13;;;6.20;;
11548;SDS011;61444;59.472;18.306;2023-02-08T05:24:26;16.43;;;6.50;;
11548;SDS011;61444;59.472;18.306;2023-02-08T05:26:35;28.50;;;7.23;;
11548;SDS011;61444;59.472;18.306;2023-02-08T05:28:44;17.57;;;5.73;;
11548;SDS011;61444;59.472;18.306;2023-02-08T05:30:52;27.17;;;6.47;;
11548;SDS011;61444;59.472;18.306;2023-02-08T05:33:02;16.53;;;6.70;;
11548;SDS011;61444;59.472;18.306;2023-02-08T05:35:11;21.23;;;6.77;;
11548;SDS011;61444;59.472;18.306;2023-02-08T05:37:19;20.30;;;6.57;;
11548;SDS011;61444;59.472;18.306;2023-02-08T05:39:29;23.30;;;8.10;;
11548;SDS011;61444;59.472;18.306;2023-02-08T05:41:38;24.60;;;6.80;;
11548;SDS011;61444;59.472;18.306;2023-02-08T05:43:47;20.37;;;7.13;;
11548;SDS011;61444;59.472;18.306;2023-02-08T05:45:56;21.10;;;6.97;;
11548;SDS011;61444;59.472;18.306;2023-02-08T05:48:05;17.27;;;6.23;;
11548;SDS011;61444;59.472;18.306;2023-02-08T05:50:14;19.97;;;7.10;;
11548;SDS011;61444;59.472;18.306;2023-02-08T05:52:23;17.93;;;6.60;;
11548;SDS011;61444;59.472;18.306;2023-02-08T05:54:34;20.07;;;6.80;;
11548;SDS011;61444;59.472;18.306;2023-02-08T05:56:42;19.33;;;6.67;;
11548;SDS011;61444;59.472;18.306;2023-02-08T05:58:52;18.27;;;6.50;;
11548;SDS011;61444;59.472;18.306;2023-02-08T06:01:00;22.77;;;7.03;;
11548;SDS011;61444;59.472;18.306;2023-02-08T06:03:14;18.07;;;6.47;;
11548;SDS011;61444;59.472;18.306;2023-02-08T06:05:23;19.67;;;6.57;;
11548;SDS011;61444;59.472;18.306;2023-02-08T06:07:33;17.63;;;6.97;;
11548;SDS011;61444;59.472;18.306;2023-02-08T06:09:43;20.37;;;6.87;;
11548;SDS011;61444;59.472;18.306;2023-02-08T06:11:54;22.70;;;7.07;;
11548;SDS011;61444;59.472;18.306;2023-02-08T06:14:02;18.60;;;7.17;;
11548;SDS011;61444;59.472;18.306;2023-02-08T06:16:11;19.80;;;6.83;;
11548;SDS011;61444;59.472;18.306;2023-02-08T06:18:23;20.17;;;7.03;;
11548;SDS011;61444;59.472;18.306;2023-02-08T06:20:32;22.47;;;6.70;;
11548;SDS011;61444;59.472;18.306;2023-02-08T06:22:41;16.90;;;7.33;;
11548;SDS011;61444;59.472;18.306;2023-02-08T06:24:51;18.23;;;7.03;;
11548;SDS011;61444;59.472;18.306;2023-02-08T06:27:00;17.97;;;7.27;;
11548;SDS011;61444;59.472;18.306;2023-02-08T06:29:09;21.10;;;7.10;;
11548;SDS011;61444;59.472;18.306;2023-02-08T06:31:18;18.97;;;6.43;;
11548;SDS011;61444;59.472;18.306;2023-02-08T06:33:27;20.97;;;6.63;;
11548;SDS011;61444;59.472;18.306;2023-02-08T06:35:36;18.40;;;6.97;;
11548;SDS011;61444;59.472;18.306;2023-02-08T06:37:45;22.23;;;7.43;;
11548;SDS011;61444;59.472;18.306;2023-02-08T06:39:56;18.87;;;7.03;;
11548;SDS011;61444;59.472;18.306;2023-02-08T06:42:07;15.63;;;6.87;;
11548;SDS011;61444;59.472;18.306;2023-02-08T06:44:16;17.70;;;6.53;;
11548;SDS011;61444;59.472;18.306;2023-02-08T06:46:25;16.93;;;6.00;;
11548;SDS011;61444;59.472;18.306;2023-02-08T06:48:34;18.10;;;6.80;;
11548;SDS011;61444;59.472;18.306;2023-02-08T06:50:43;22.43;;;6.50;;
11548;SDS011;61444;59.472;18.306;2023-02-08T06:52:53;15.87;;;6.93;;
11548;SDS011;61444;59.472;18.306;2023-02-08T06:55:04;18.20;;;7.17;;
11548;SDS011;61444;59.472;18.306;2023-02-08T06:57:12;13.87;;;7.07;;
11548;SDS011;61444;59.472;18.306;2023-02-08T06:59:21;15.73;;;6.83;;
11548;SDS011;61444;59.472;18.306;2023-02-08T07:01:30;19.03;;;6.67;;
11548;SDS011;61444;59.472;18.306;2023-02-08T07:03:40;14.80;;;6.57;;
11548;SDS011;61444;59.472;18.306;2023-02-08T07:05:49;19.27;;;7.50;;
11548;SDS011;61444;59.472;18.306;2023-02-08T07:08:11;15.50;;;5.93;;
11548;SDS011;61444;59.472;18.306;2023-02-08T07:10:22;19.90;;;6.70;;
11548;SDS011;61444;59.472;18.306;2023-02-08T07:12:31;17.57;;;6.00;;
11548;SDS011;61444;59.472;18.306;2023-02-08T07:14:41;17.50;;;6.23;;
11548;SDS011;61444;59.472;18.306;2023-02-08T07:16:50;15.43;;;6.07;;
11548;SDS011;61444;59.472;18.306;2023-02-08T07:19:01;16.27;;;6.53;;
11548;SDS011;61444;59.472;18.306;2023-02-08T07:21:10;20.33;;;6.63;;
11548;SDS011;61444;59.472;18.306;2023-02-08T07:23:19;17.97;;;5.40;;
11548;SDS011;61444;59.472;18.306;2023-02-08T07:25:30;17.23;;;6.90;;
11548;SDS011;61444;59.472;18.306;2023-02-08T07:27:38;19.60;;;7.13;;
11548;SDS011;61444;59.472;18.306;2023-02-08T07:29:47;20.30;;;6.80;;
11548;SDS011;61444;59.472;18.306;2023-02-08T07:31:56;16.37;;;6.70;;
11548;SDS011;61444;59.472;18.306;2023-02-08T07:34:06;13.07;;;6.03;;
11548;SDS011;61444;59.472;18.306;2023-02-08T07:36:14;15.63;;;6.57;;
11548;SDS011;61444;59.472;18.306;2023-02-08T07:38:23;15.00;;;7.47;;
11548;SDS011;61444;59.472;18.306;2023-02-08T07:40:33;13.17;;;5.67;;
11548;SDS011;61444;59.472;18.306;2023-02-08T07:42:42;17.90;;;6.67;;
11548;SDS011;61444;59.472;18.306;2023-02-08T07:44:51;17.53;;;6.77;;
11548;SDS011;61444;59.472;18.306;2023-02-08T07:47:00;20.60;;;6.77;;
11548;SDS011;61444;59.472;18.306;2023-02-08T07:49:09;20.90;;;7.33;;
11548;SDS011;61444;59.472;18.306;2023-02-08T07:51:18;15.30;;;6.93;;
11548;SDS011;61444;59.472;18.306;2023-02-08T07:53:27;20.47;;;6.53;;
11548;SDS011;61444;59.472;18.306;2023-02-08T07:55:37;22.57;;;7.17;;
11548;SDS011;61444;59.472;18.306;2023-02-08T07:57:47;15.57;;;5.47;;
11548;SDS011;61444;59.472;18.306;2023-02-08T07:59:56;18.93;;;6.60;;
11548;SDS011;61444;59.472;18.306;2023-02-08T08:02:07;11.73;;;6.00;;
11548;SDS011;61444;59.472;18.306;2023-02-08T08:04:17;21.77;;;6.03;;
11548;SDS011;61444;59.472;18.306;2023-02-08T08:06:27;14.97;;;6.00;;
11548;SDS011;61444;59.472;18.306;2023-02-08T08:08:36;13.53;;;6.40;;
11548;SDS011;61444;59.472;18.306;2023-02-08T08:10:47;19.27;;;5.93;;
11548;SDS011;61444;59.472;18.306;2023-02-08T08:12:56;19.40;;;6.20;;
11548;SDS011;61444;59.472;18.306;2023-02-08T08:15:05;13.47;;;6.13;;
11548;SDS011;61444;59.472;18.306;2023-02-08T08:17:14;13.93;;;6.40;;
11548;SDS011;61444;59.472;18.306;2023-02-08T08:19:24;15.60;;;5.40;;
11548;SDS011;61444;59.472;18.306;2023-02-08T08:21:33;16.33;;;5.53;;
11548;SDS011;61444;59.472;18.306;2023-02-08T08:23:43;13.17;;;3.50;;
11548;SDS011;61444;59.472;18.306;2023-02-08T08:25:54;14.63;;;4.73;;
11548;SDS011;61444;59.472;18.306;2023-02-08T08:28:02;16.33;;;4.77;;
11548;SDS011;61444;59.472;18.306;2023-02-08T08:30:14;14.50;;;4.87;;
11548;SDS011;61444;59.472;18.306;2023-02-08T08:32:23;12.80;;;4.87;;
11548;SDS011;61444;59.472;18.306;2023-02-08T08:34:32;16.03;;;4.50;;
11548;SDS011;61444;59.472;18.306;2023-02-08T08:36:41;15.77;;;5.10;;
11548;SDS011;61444;59.472;18.306;2023-02-08T08:38:50;12.40;;;4.70;;
11548;SDS011;61444;59.472;18.306;2023-02-08T08:41:02;13.40;;;4.90;;
11548;SDS011;61444;59.472;18.306;2023-02-08T08:43:13;14.20;;;4.57;;
11548;SDS011;61444;59.472;18.306;2023-02-08T08:45:22;16.20;;;5.27;;
11548;SDS011;61444;59.472;18.306;2023-02-08T08:47:31;14.77;;;4.67;;
11548;SDS011;61444;59.472;18.306;2023-02-08T08:49:40;8.57;;;4.00;;
11548;SDS011;61444;59.472;18.306;2023-02-08T08:51:49;20.33;;;5.47;;
11548;SDS011;61444;59.472;18.306;2023-02-08T08:53:58;11.60;;;4.80;;
11548;SDS011;61444;59.472;18.306;2023-02-08T08:56:09;12.43;;;4.40;;
11548;SDS011;61444;59.472;18.306;2023-02-08T08:58:18;10.23;;;4.17;;
11548;SDS011;61444;59.472;18.306;2023-02-08T09:00:26;8.90;;;3.73;;
11548;SDS011;61444;59.472;18.306;2023-02-08T09:02:36;15.47;;;4.40;;
11548;SDS011;61444;59.472;18.306;2023-02-08T09:04:44;12.33;;;4.17;;
11548;SDS011;61444;59.472;18.306;2023-02-08T09:06:53;17.33;;;4.80;;
11548;SDS011;61444;59.472;18.306;2023-02-08T09:09:02;12.77;;;4.20;;
11548;SDS011;61444;59.472;18.306;2023-02-08T09:11:13;12.17;;;4.53;;
11548;SDS011;61444;59.472;18.306;2023-02-08T09:13:23;11.53;;;4.00;;
11548;SDS011;61444;59.472;18.306;2023-02-08T09:15:32;8.63;;;4.43;;
11548;SDS011;61444;59.472;18.306;2023-02-08T09:17:41;8.47;;;3.87;;
11548;SDS011;61444;59.472;18.306;2023-02-08T09:19:50;10.43;;;4.27;;
11548;SDS011;61444;59.472;18.306;2023-02-08T09:21:59;8.53;;;4.30;;
11548;SDS011;61444;59.472;18.306;2023-02-08T09:24:09;14.10;;;4.40;;
11548;SDS011;61444;59.472;18.306;2023-02-08T09:26:19;10.30;;;3.80;;
11548;SDS011;61444;59.472;18.306;2023-02-08T09:28:28;10.37;;;3.70;;
11548;SDS011;61444;59.472;18.306;2023-02-08T09:30:37;10.30;;;3.47;;
11548;SDS011;61444;59.472;18.306;2023-02-08T09:32:47;12.33;;;3.97;;
11548;SDS011;61444;59.472;18.306;2023-02-08T09:34:56;8.07;;;3.97;;
11548;SDS011;61444;59.472;18.306;2023-02-08T09:37:05;11.60;;;3.43;;
11548;SDS011;61444;59.472;18.306;2023-02-08T09:39:15;10.17;;;3.60;;
11548;SDS011;61444;59.472;18.306;2023-02-08T09:41:30;9.50;;;3.37;;
11548;SDS011;61444;59.472;18.306;2023-02-08T09:43:43;7.50;;;2.57;;
11548;SDS011;61444;59.472;18.306;2023-02-08T09:45:57;13.80;;;4.50;;
11548;SDS011;61444;59.472;18.306;2023-02-08T09:48:13;10.80;;;3.20;;
11548;SDS011;61444;59.472;18.306;2023-02-08T09:50:24;10.53;;;3.93;;
11548;SDS011;61444;59.472;18.306;2023-02-08T09:52:36;10.17;;;3.13;;
11548;SDS011;61444;59.472;18.306;2023-02-08T09:54:47;8.47;;;3.03;;
11548;SDS011;61444;59.472;18.306;2023-02-08T09:56:59;12.30;;;3.23;;
11548;SDS011;61444;59.472;18.306;2023-02-08T09:59:11;9.53;;;3.10;;
11548;SDS011;61444;59.472;18.306;2023-02-08T10:01:21;9.93;;;3.63;;
11548;SDS011;61444;59.472;18.306;2023-02-08T10:03:33;11.03;;;3.60;;
11548;SDS011;61444;59.472;18.306;2023-02-08T10:05:42;8.93;;;3.10;;
11548;SDS011;61444;59.472;18.306;2023-02-08T10:07:51;7.37;;;3.20;;
11548;SDS011;61444;59.472;18.306;2023-02-08T10:10:03;13.17;;;3.93;;
11548;SDS011;61444;59.472;18.306;2023-02-08T10:12:16;6.80;;;3.10;;
11548;SDS011;61444;59.472;18.306;2023-02-08T10:14:30;13.73;;;3.10;;
11548;SDS011;61444;59.472;18.306;2023-02-08T10:16:54;9.23;;;3.20;;
11548;SDS011;61444;59.472;18.306;2023-02-08T10:19:08;10.93;;;3.33;;
11548;SDS011;61444;59.472;18.306;2023-02-08T10:21:32;9.40;;;3.70;;
11548;SDS011;61444;59.472;18.306;2023-02-08T10:23:48;10.87;;;3.57;;
11548;SDS011;61444;59.472;18.306;2023-02-08T10:26:08;10.67;;;2.70;;
11548;SDS011;61444;59.472;18.306;2023-02-08T10:28:36;11.27;;;3.30;;
11548;SDS011;61444;59.472;18.306;2023-02-08T10:30:50;10.63;;;3.40;;
11548;SDS011;61444;59.472;18.306;2023-02-08T10:33:05;11.33;;;3.50;;
11548;SDS011;61444;59.472;18.306;2023-02-08T10:35:16;11.87;;;3.63;;
11548;SDS011;61444;59.472;18.306;2023-02-08T10:37:30;10.03;;;3.30;;
11548;SDS011;61444;59.472;18.306;2023-02-08T10:39:41;10.37;;;3.37;;
11548;SDS011;61444;59.472;18.306;2023-02-08T10:41:50;10.87;;;2.93;;
11548;SDS011;61444;59.472;18.306;2023-02-08T10:44:02;10.23;;;2.93;;
11548;SDS011;61444;59.472;18.306;2023-02-08T10:46:14;10.60;;;3.10;;
11548;SDS011;61444;59.472;18.306;2023-02-08T10:48:30;9.60;;;2.90;;
11548;SDS011;61444;59.472;18.306;2023-02-08T10:50:43;10.50;;;2.90;;
11548;SDS011;61444;59.472;18.306;2023-02-08T10:52:53;5.80;;;2.57;;
11548;SDS011;61444;59.472;18.306;2023-02-08T10:55:06;10.70;;;3.17;;
11548;SDS011;61444;59.472;18.306;2023-02-08T10:57:19;7.77;;;3.27;;
11548;SDS011;61444;59.472;18.306;2023-02-08T10:59:32;9.20;;;2.97;;
11548;SDS011;61444;59.472;18.306;2023-02-08T11:01:41;9.90;;;3.10;;
11548;SDS011;61444;59.472;18.306;2023-02-08T11:04:01;8.77;;;2.37;;
11548;SDS011;61444;59.472;18.306;2023-02-08T11:06:20;8.37;;;2.73;;
11548;SDS011;61444;59.472;18.306;2023-02-08T11:08:32;4.10;;;2.17;;
11548;SDS011;61444;59.472;18.306;2023-02-08T11:11:01;5.00;;;2.30;;
11548;SDS011;61444;59.472;18.306;2023-02-08T11:13:14;5.83;;;2.50;;
11548;SDS011;61444;59.472;18.306;2023-02-08T11:15:28;7.43;;;2.20;;
11548;SDS011;61444;59.472;18.306;2023-02-08T11:17:37;6.20;;;2.47;;
11548;SDS011;61444;59.472;18.306;2023-02-08T11:19:46;3.80;;;2.20;;
11548;SDS011;61444;59.472;18.306;2023-02-08T11:21:57;7.10;;;2.83;;
11548;SDS011;61444;59.472;18.306;2023-02-08T11:26:33;7.60;;;2.20;;
11548;SDS011;61444;59.472;18.306;2023-02-08T11:28:42;5.70;;;2.17;;
11548;SDS011;61444;59.472;18.306;2023-02-08T11:31:14;7.30;;;2.20;;
11548;SDS011;61444;59.472;18.306;2023-02-08T11:33:25;6.77;;;2.27;;
11548;SDS011;61444;59.472;18.306;2023-02-08T11:35:34;6.73;;;2.17;;
11548;SDS011;61444;59.472;18.306;2023-02-08T11:37:45;5.23;;;1.70;;
11548;SDS011;61444;59.472;18.306;2023-02-08T11:39:54;9.43;;;1.93;;
11548;SDS011;61444;59.472;18.306;2023-02-08T11:42:04;12.33;;;2.90;;
11548;SDS011;61444;59.472;18.306;2023-02-08T11:44:15;9.50;;;2.40;;
11548;SDS011;61444;59.472;18.306;2023-02-08T11:46:26;9.33;;;2.43;;
11548;SDS011;61444;59.472;18.306;2023-02-08T11:48:41;8.43;;;2.13;;
11548;SDS011;61444;59.472;18.306;2023-02-08T11:50:54;6.30;;;2.47;;
11548;SDS011;61444;59.472;18.306;2023-02-08T11:53:04;6.17;;;2.30;;
11548;SDS011;61444;59.472;18.306;2023-02-08T11:55:18;6.80;;;2.17;;
11548;SDS011;61444;59.472;18.306;2023-02-08T11:57:30;4.53;;;2.13;;
11548;SDS011;61444;59.472;18.306;2023-02-08T11:59:42;6.20;;;1.90;;
11548;SDS011;61444;59.472;18.306;2023-02-08T12:01:53;5.83;;;2.43;;
11548;SDS011;61444;59.472;18.306;2023-02-08T12:04:03;5.03;;;1.90;;
11548;SDS011;61444;59.472;18.306;2023-02-08T12:06:16;6.90;;;2.30;;
11548;SDS011;61444;59.472;18.306;2023-02-08T12:08:29;8.23;;;2.40;;
11548;SDS011;61444;59.472;18.306;2023-02-08T12:10:49;8.30;;;2.70;;
11548;SDS011;61444;59.472;18.306;2023-02-08T12:13:18;10.03;;;2.70;;
11548;SDS011;61444;59.472;18.306;2023-02-08T12:15:40;6.43;;;2.33;;
11548;SDS011;61444;59.472;18.306;2023-02-08T12:18:10;5.73;;;2.20;;
11548;SDS011;61444;59.472;18.306;2023-02-08T12:20:37;10.70;;;2.70;;
11548;SDS011;61444;59.472;18.306;2023-02-08T12:22:51;9.83;;;2.37;;
11548;SDS011;61444;59.472;18.306;2023-02-08T12:25:18;5.23;;;1.90;;
11548;SDS011;61444;59.472;18.306;2023-02-08T12:27:32;7.97;;;2.17;;
11548;SDS011;61444;59.472;18.306;2023-02-08T12:29:47;3.70;;;2.10;;
11548;SDS011;61444;59.472;18.306;2023-02-08T12:32:03;4.40;;;2.07;;
11548;SDS011;61444;59.472;18.306;2023-02-08T12:34:16;8.03;;;2.60;;
11548;SDS011;61444;59.472;18.306;2023-02-08T12:39:05;6.60;;;2.40;;
11548;SDS011;61444;59.472;18.306;2023-02-08T12:41:34;7.03;;;2.20;;
11548;SDS011;61444;59.472;18.306;2023-02-08T12:43:47;7.27;;;2.50;;
11548;SDS011;61444;59.472;18.306;2023-02-08T12:46:07;5.97;;;2.20;;
11548;SDS011;61444;59.472;18.306;2023-02-08T12:48:25;5.10;;;1.90;;
11548;SDS011;61444;59.472;18.306;2023-02-08T12:50:42;6.70;;;2.40;;
11548;SDS011;61444;59.472;18.306;2023-02-08T12:52:54;8.10;;;2.97;;
11548;SDS011;61444;59.472;18.306;2023-02-08T12:55:08;5.93;;;2.37;;
11548;SDS011;61444;59.472;18.306;2023-02-08T12:57:21;11.80;;;2.73;;
11548;SDS011;61444;59.472;18.306;2023-02-08T12:59:32;7.83;;;2.43;;
11548;SDS011;61444;59.472;18.306;2023-02-08T13:01:42;4.83;;;1.70;;